sensor_id;sensor_type;location;lat;lon;timestamp;temperature;humidity
68215;DHT22;55036;52.138;5.236;2023-05-16T00:01:45;11.40;75.70
68215;DHT22;55036;52.138;5.236;2023-05-16T00:04:11;11.40;75.70
68215;DHT22;55036;52.138;5.236;2023-05-16T00:06:38;11.40;75.50
68215;DHT22;55036;52.138;5.236;2023-05-16T00:09:05;11.50;75.60
68215;DHT22;55036;52.138;5.236;2023-05-16T00:11:32;11.40;74.90
68215;DHT22;55036;52.138;5.236;2023-05-16T00:13:59;11.40;75.10
68215;DHT22;55036;52.138;5.236;2023-05-16T00:48:54;10.90;75.10
68215;DHT22;55036;52.138;5.236;2023-05-16T00:51:21;10.90;75.40
68215;DHT22;55036;52.138;5.236;2023-05-16T00:53:48;10.80;75.60
68215;DHT22;55036;52.138;5.236;2023-05-16T00:56:15;10.90;75.50
68215;DHT22;55036;52.138;5.236;2023-05-16T00:58:43;10.90;75.30
68215;DHT22;55036;52.138;5.236;2023-05-16T01:01:09;10.90;75.10
68215;DHT22;55036;52.138;5.236;2023-05-16T01:03:36;10.90;75.20
68215;DHT22;55036;52.138;5.236;2023-05-16T01:06:04;10.90;75.10
68215;DHT22;55036;52.138;5.236;2023-05-16T01:08:32;10.90;75.00
68215;DHT22;55036;52.138;5.236;2023-05-16T01:11:07;11.00;75.10
68215;DHT22;55036;52.138;5.236;2023-05-16T01:16:26;10.90;74.90
68215;DHT22;55036;52.138;5.236;2023-05-16T01:21:47;10.80;76.20
68215;DHT22;55036;52.138;5.236;2023-05-16T01:24:21;10.80;75.00
68215;DHT22;55036;52.138;5.236;2023-05-16T01:26:50;10.70;75.10
68215;DHT22;55036;52.138;5.236;2023-05-16T01:29:18;10.70;75.30
68215;DHT22;55036;52.138;5.236;2023-05-16T01:31:45;10.70;75.60
68215;DHT22;55036;52.138;5.236;2023-05-16T01:34:12;10.70;75.50
68215;DHT22;55036;52.138;5.236;2023-05-16T01:36:47;10.70;75.40
68215;DHT22;55036;52.138;5.236;2023-05-16T01:39:40;10.70;75.30
68215;DHT22;55036;52.138;5.236;2023-05-16T01:42:11;10.70;75.10
68215;DHT22;55036;52.138;5.236;2023-05-16T01:44:48;10.70;75.30
68215;DHT22;55036;52.138;5.236;2023-05-16T01:47:18;10.60;75.20
68215;DHT22;55036;52.138;5.236;2023-05-16T01:50:15;10.60;76.50
68215;DHT22;55036;52.138;5.236;2023-05-16T01:53:11;10.70;75.50
68215;DHT22;55036;52.138;5.236;2023-05-16T01:55:48;10.70;75.50
68215;DHT22;55036;52.138;5.236;2023-05-16T01:58:18;10.60;75.30
68215;DHT22;55036;52.138;5.236;2023-05-16T02:00:45;10.60;75.50
68215;DHT22;55036;52.138;5.236;2023-05-16T02:03:12;10.60;75.40
68215;DHT22;55036;52.138;5.236;2023-05-16T02:05:39;10.60;75.60
68215;DHT22;55036;52.138;5.236;2023-05-16T02:08:07;10.60;75.70
68215;DHT22;55036;52.138;5.236;2023-05-16T02:10:34;10.60;75.70
68215;DHT22;55036;52.138;5.236;2023-05-16T02:13:00;10.60;75.50
68215;DHT22;55036;52.138;5.236;2023-05-16T02:15:27;10.60;75.30
68215;DHT22;55036;52.138;5.236;2023-05-16T02:17:54;10.50;75.60
68215;DHT22;55036;52.138;5.236;2023-05-16T02:20:21;10.50;75.70
68215;DHT22;55036;52.138;5.236;2023-05-16T02:22:48;10.50;75.80
68215;DHT22;55036;52.138;5.236;2023-05-16T02:25:15;10.50;75.70
68215;DHT22;55036;52.138;5.236;2023-05-16T02:27:42;10.50;76.00
68215;DHT22;55036;52.138;5.236;2023-05-16T02:30:10;10.50;76.00
68215;DHT22;55036;52.138;5.236;2023-05-16T02:32:40;10.50;75.90
68215;DHT22;55036;52.138;5.236;2023-05-16T02:35:07;10.50;75.70
68215;DHT22;55036;52.138;5.236;2023-05-16T02:37:34;10.50;75.80
68215;DHT22;55036;52.138;5.236;2023-05-16T02:40:01;10.50;76.00
68215;DHT22;55036;52.138;5.236;2023-05-16T02:42:29;10.40;75.90
68215;DHT22;55036;52.138;5.236;2023-05-16T02:44:57;10.40;75.80
68215;DHT22;55036;52.138;5.236;2023-05-16T02:47:24;10.40;76.00
68215;DHT22;55036;52.138;5.236;2023-05-16T02:49:51;10.30;76.00
68215;DHT22;55036;52.138;5.236;2023-05-16T02:52:18;10.30;76.00
68215;DHT22;55036;52.138;5.236;2023-05-16T02:54:45;10.30;76.30
68215;DHT22;55036;52.138;5.236;2023-05-16T02:57:25;10.30;76.30
68215;DHT22;55036;52.138;5.236;2023-05-16T02:59:52;10.30;76.10
68215;DHT22;55036;52.138;5.236;2023-05-16T03:02:19;10.20;76.10
68215;DHT22;55036;52.138;5.236;2023-05-16T03:04:45;10.20;76.00
68215;DHT22;55036;52.138;5.236;2023-05-16T03:07:12;10.20;76.30
68215;DHT22;55036;52.138;5.236;2023-05-16T03:09:39;10.10;76.30
68215;DHT22;55036;52.138;5.236;2023-05-16T03:12:06;10.10;76.20
68215;DHT22;55036;52.138;5.236;2023-05-16T03:14:33;10.10;76.40
68215;DHT22;55036;52.138;5.236;2023-05-16T03:16:59;10.10;76.50
68215;DHT22;55036;52.138;5.236;2023-05-16T03:19:26;10.10;76.40
68215;DHT22;55036;52.138;5.236;2023-05-16T03:21:53;10.00;76.40
68215;DHT22;55036;52.138;5.236;2023-05-16T03:24:19;10.00;76.50
68215;DHT22;55036;52.138;5.236;2023-05-16T03:26:48;10.00;76.60
68215;DHT22;55036;52.138;5.236;2023-05-16T03:29:15;10.00;76.60
68215;DHT22;55036;52.138;5.236;2023-05-16T03:31:42;10.00;76.70
68215;DHT22;55036;52.138;5.236;2023-05-16T03:34:09;10.00;76.70
68215;DHT22;55036;52.138;5.236;2023-05-16T03:36:37;9.90;76.80
68215;DHT22;55036;52.138;5.236;2023-05-16T03:39:04;9.90;76.80
68215;DHT22;55036;52.138;5.236;2023-05-16T03:41:30;9.90;76.80
68215;DHT22;55036;52.138;5.236;2023-05-16T03:43:57;9.80;76.80
68215;DHT22;55036;52.138;5.236;2023-05-16T03:46:24;9.80;76.90
68215;DHT22;55036;52.138;5.236;2023-05-16T03:48:51;9.80;76.80
68215;DHT22;55036;52.138;5.236;2023-05-16T03:51:17;9.80;76.80
68215;DHT22;55036;52.138;5.236;2023-05-16T03:53:44;9.80;76.80
68215;DHT22;55036;52.138;5.236;2023-05-16T03:56:11;9.80;76.80
68215;DHT22;55036;52.138;5.236;2023-05-16T03:58:38;9.70;76.70
68215;DHT22;55036;52.138;5.236;2023-05-16T04:01:04;9.70;76.90
68215;DHT22;55036;52.138;5.236;2023-05-16T04:03:31;9.70;77.00
68215;DHT22;55036;52.138;5.236;2023-05-16T04:05:59;9.70;76.80
68215;DHT22;55036;52.138;5.236;2023-05-16T04:08:25;9.70;77.00
68215;DHT22;55036;52.138;5.236;2023-05-16T04:10:53;9.70;77.00
68215;DHT22;55036;52.138;5.236;2023-05-16T04:13:20;9.70;77.00
68215;DHT22;55036;52.138;5.236;2023-05-16T04:15:47;9.70;77.30
68215;DHT22;55036;52.138;5.236;2023-05-16T04:18:13;9.70;77.50
68215;DHT22;55036;52.138;5.236;2023-05-16T04:20:43;9.80;77.60
68215;DHT22;55036;52.138;5.236;2023-05-16T04:23:13;9.80;77.50
68215;DHT22;55036;52.138;5.236;2023-05-16T04:25:39;9.80;77.40
68215;DHT22;55036;52.138;5.236;2023-05-16T04:28:06;9.90;77.50
68215;DHT22;55036;52.138;5.236;2023-05-16T04:30:33;9.90;77.50
68215;DHT22;55036;52.138;5.236;2023-05-16T04:33:00;9.90;77.50
68215;DHT22;55036;52.138;5.236;2023-05-16T04:35:27;9.90;78.40
68215;DHT22;55036;52.138;5.236;2023-05-16T04:37:54;9.90;77.50
68215;DHT22;55036;52.138;5.236;2023-05-16T04:40:21;9.90;77.50
68215;DHT22;55036;52.138;5.236;2023-05-16T04:42:50;10.00;77.50
68215;DHT22;55036;52.138;5.236;2023-05-16T04:45:17;10.00;77.60
68215;DHT22;55036;52.138;5.236;2023-05-16T04:47:44;10.10;77.70
68215;DHT22;55036;52.138;5.236;2023-05-16T04:50:11;10.10;77.60
68215;DHT22;55036;52.138;5.236;2023-05-16T04:52:37;10.20;77.80
68215;DHT22;55036;52.138;5.236;2023-05-16T04:55:04;10.40;78.90
68215;DHT22;55036;52.138;5.236;2023-05-16T04:57:31;10.50;78.00
68215;DHT22;55036;52.138;5.236;2023-05-16T04:59:58;10.70;78.10
68215;DHT22;55036;52.138;5.236;2023-05-16T05:02:24;11.00;78.00
68215;DHT22;55036;52.138;5.236;2023-05-16T05:04:51;11.40;77.60
68215;DHT22;55036;52.138;5.236;2023-05-16T05:07:18;11.80;77.10
68215;DHT22;55036;52.138;5.236;2023-05-16T05:09:45;12.20;76.00
68215;DHT22;55036;52.138;5.236;2023-05-16T05:12:12;12.60;75.40
68215;DHT22;55036;52.138;5.236;2023-05-16T05:14:38;13.10;73.90
68215;DHT22;55036;52.138;5.236;2023-05-16T05:17:05;13.60;72.50
68215;DHT22;55036;52.138;5.236;2023-05-16T05:19:32;14.00;71.30
68215;DHT22;55036;52.138;5.236;2023-05-16T05:21:59;14.30;71.00
68215;DHT22;55036;52.138;5.236;2023-05-16T05:24:25;14.40;69.60
68215;DHT22;55036;52.138;5.236;2023-05-16T05:26:52;14.30;69.30
68215;DHT22;55036;52.138;5.236;2023-05-16T05:29:19;14.20;69.30
68215;DHT22;55036;52.138;5.236;2023-05-16T05:31:46;14.10;69.10
68215;DHT22;55036;52.138;5.236;2023-05-16T05:34:12;14.00;68.80
68215;DHT22;55036;52.138;5.236;2023-05-16T05:36:39;14.10;68.70
68215;DHT22;55036;52.138;5.236;2023-05-16T05:39:06;14.10;68.80
68215;DHT22;55036;52.138;5.236;2023-05-16T05:41:33;14.20;68.90
68215;DHT22;55036;52.138;5.236;2023-05-16T05:44:00;14.30;67.60
68215;DHT22;55036;52.138;5.236;2023-05-16T05:46:26;14.30;67.60
68215;DHT22;55036;52.138;5.236;2023-05-16T05:48:53;14.40;67.60
68215;DHT22;55036;52.138;5.236;2023-05-16T05:51:20;14.40;67.40
68215;DHT22;55036;52.138;5.236;2023-05-16T05:53:47;14.50;67.20
68215;DHT22;55036;52.138;5.236;2023-05-16T05:56:14;14.40;66.40
68215;DHT22;55036;52.138;5.236;2023-05-16T05:58:40;14.50;66.90
68215;DHT22;55036;52.138;5.236;2023-05-16T06:01:09;14.70;66.60
68215;DHT22;55036;52.138;5.236;2023-05-16T06:03:35;14.80;66.50
68215;DHT22;55036;52.138;5.236;2023-05-16T06:06:03;15.00;66.50
68215;DHT22;55036;52.138;5.236;2023-05-16T06:08:30;15.00;65.40
68215;DHT22;55036;52.138;5.236;2023-05-16T06:10:57;15.00;65.10
68215;DHT22;55036;52.138;5.236;2023-05-16T06:13:26;15.10;65.70
68215;DHT22;55036;52.138;5.236;2023-05-16T06:15:53;15.20;64.40
68215;DHT22;55036;52.138;5.236;2023-05-16T06:18:20;15.20;65.20
68215;DHT22;55036;52.138;5.236;2023-05-16T06:20:47;15.40;64.80
68215;DHT22;55036;52.138;5.236;2023-05-16T06:23:14;15.50;64.40
68215;DHT22;55036;52.138;5.236;2023-05-16T06:25:40;15.50;63.20
68215;DHT22;55036;52.138;5.236;2023-05-16T06:28:07;15.50;63.00
68215;DHT22;55036;52.138;5.236;2023-05-16T06:30:34;15.40;62.50
68215;DHT22;55036;52.138;5.236;2023-05-16T06:33:00;15.30;60.20
68215;DHT22;55036;52.138;5.236;2023-05-16T06:35:30;15.00;62.10
68215;DHT22;55036;52.138;5.236;2023-05-16T06:37:57;14.80;62.60
68215;DHT22;55036;52.138;5.236;2023-05-16T06:40:24;14.60;62.30
68215;DHT22;55036;52.138;5.236;2023-05-16T06:42:51;14.50;63.10
68215;DHT22;55036;52.138;5.236;2023-05-16T06:45:18;14.60;62.70
68215;DHT22;55036;52.138;5.236;2023-05-16T06:47:44;14.60;62.90
68215;DHT22;55036;52.138;5.236;2023-05-16T06:50:11;14.80;63.10
68215;DHT22;55036;52.138;5.236;2023-05-16T06:52:38;15.00;63.10
68215;DHT22;55036;52.138;5.236;2023-05-16T06:55:05;15.00;59.30
68215;DHT22;55036;52.138;5.236;2023-05-16T06:57:32;14.80;60.80
68215;DHT22;55036;52.138;5.236;2023-05-16T06:59:58;14.60;61.10
68215;DHT22;55036;52.138;5.236;2023-05-16T07:02:25;14.50;61.50
68215;DHT22;55036;52.138;5.236;2023-05-16T07:04:52;14.40;60.90
68215;DHT22;55036;52.138;5.236;2023-05-16T07:07:19;14.40;62.40
68215;DHT22;55036;52.138;5.236;2023-05-16T07:09:46;14.50;62.30
68215;DHT22;55036;52.138;5.236;2023-05-16T07:12:12;14.60;62.20
68215;DHT22;55036;52.138;5.236;2023-05-16T07:14:39;14.70;62.20
68215;DHT22;55036;52.138;5.236;2023-05-16T07:17:07;14.90;61.60
68215;DHT22;55036;52.138;5.236;2023-05-16T07:19:34;15.10;61.10
68215;DHT22;55036;52.138;5.236;2023-05-16T07:22:01;15.40;59.50
68215;DHT22;55036;52.138;5.236;2023-05-16T07:24:27;15.30;58.90
68215;DHT22;55036;52.138;5.236;2023-05-16T07:26:54;15.50;60.00
68215;DHT22;55036;52.138;5.236;2023-05-16T07:29:21;15.70;59.00
68215;DHT22;55036;52.138;5.236;2023-05-16T07:31:48;15.80;57.90
68215;DHT22;55036;52.138;5.236;2023-05-16T07:34:14;15.70;55.60
68215;DHT22;55036;52.138;5.236;2023-05-16T07:36:41;15.60;57.80
68215;DHT22;55036;52.138;5.236;2023-05-16T07:39:08;15.50;57.50
68215;DHT22;55036;52.138;5.236;2023-05-16T07:41:35;15.50;57.80
68215;DHT22;55036;52.138;5.236;2023-05-16T07:44:02;15.50;56.50
68215;DHT22;55036;52.138;5.236;2023-05-16T07:46:28;15.90;59.10
68215;DHT22;55036;52.138;5.236;2023-05-16T07:48:56;16.30;58.40
68215;DHT22;55036;52.138;5.236;2023-05-16T07:51:22;16.60;58.20
68215;DHT22;55036;52.138;5.236;2023-05-16T07:53:49;16.90;57.80
68215;DHT22;55036;52.138;5.236;2023-05-16T07:56:17;17.20;56.10
68215;DHT22;55036;52.138;5.236;2023-05-16T07:58:44;17.20;54.10
68215;DHT22;55036;52.138;5.236;2023-05-16T08:01:11;17.10;51.30
68215;DHT22;55036;52.138;5.236;2023-05-16T08:03:38;16.90;49.90
68215;DHT22;55036;52.138;5.236;2023-05-16T08:06:05;16.70;49.90
68215;DHT22;55036;52.138;5.236;2023-05-16T08:08:32;16.70;50.70
68215;DHT22;55036;52.138;5.236;2023-05-16T08:10:58;16.90;52.50
68215;DHT22;55036;52.138;5.236;2023-05-16T08:13:25;17.00;49.00
68215;DHT22;55036;52.138;5.236;2023-05-16T08:15:52;17.10;53.00
68215;DHT22;55036;52.138;5.236;2023-05-16T08:18:18;17.30;51.80
68215;DHT22;55036;52.138;5.236;2023-05-16T08:20:48;17.50;51.80
68215;DHT22;55036;52.138;5.236;2023-05-16T08:23:17;17.60;51.60
68215;DHT22;55036;52.138;5.236;2023-05-16T08:25:44;17.50;49.20
68215;DHT22;55036;52.138;5.236;2023-05-16T08:28:11;17.20;50.60
68215;DHT22;55036;52.138;5.236;2023-05-16T08:30:38;17.40;51.80
68215;DHT22;55036;52.138;5.236;2023-05-16T08:33:08;17.60;50.20
68215;DHT22;55036;52.138;5.236;2023-05-16T08:35:35;17.50;51.00
68215;DHT22;55036;52.138;5.236;2023-05-16T08:38:02;17.60;50.90
68215;DHT22;55036;52.138;5.236;2023-05-16T08:40:29;17.70;49.90
68215;DHT22;55036;52.138;5.236;2023-05-16T08:42:56;18.00;50.20
68215;DHT22;55036;52.138;5.236;2023-05-16T08:45:24;18.20;49.80
68215;DHT22;55036;52.138;5.236;2023-05-16T08:47:54;17.90;48.80
68215;DHT22;55036;52.138;5.236;2023-05-16T08:50:22;17.70;48.90
68215;DHT22;55036;52.138;5.236;2023-05-16T08:52:51;17.60;48.40
68215;DHT22;55036;52.138;5.236;2023-05-16T08:55:19;17.50;48.60
68215;DHT22;55036;52.138;5.236;2023-05-16T08:57:49;17.50;50.40
68215;DHT22;55036;52.138;5.236;2023-05-16T09:00:17;17.80;49.80
68215;DHT22;55036;52.138;5.236;2023-05-16T09:02:45;17.90;45.90
68215;DHT22;55036;52.138;5.236;2023-05-16T09:05:13;17.60;47.70
68215;DHT22;55036;52.138;5.236;2023-05-16T09:07:41;17.30;47.90
68215;DHT22;55036;52.138;5.236;2023-05-16T09:10:09;17.20;49.10
68215;DHT22;55036;52.138;5.236;2023-05-16T09:12:37;16.90;48.90
68215;DHT22;55036;52.138;5.236;2023-05-16T09:15:05;16.70;49.60
68215;DHT22;55036;52.138;5.236;2023-05-16T09:17:36;16.90;51.10
68215;DHT22;55036;52.138;5.236;2023-05-16T09:20:11;17.10;50.30
68215;DHT22;55036;52.138;5.236;2023-05-16T09:22:39;17.40;50.40
68215;DHT22;55036;52.138;5.236;2023-05-16T09:25:07;17.60;49.60
68215;DHT22;55036;52.138;5.236;2023-05-16T09:27:55;18.00;49.80
68215;DHT22;55036;52.138;5.236;2023-05-16T09:30:28;18.30;49.00
68215;DHT22;55036;52.138;5.236;2023-05-16T09:32:55;17.70;45.40
68215;DHT22;55036;52.138;5.236;2023-05-16T09:35:23;17.20;45.90
68215;DHT22;55036;52.138;5.236;2023-05-16T09:38:16;17.20;47.80
68215;DHT22;55036;52.138;5.236;2023-05-16T09:40:43;17.60;48.00
68215;DHT22;55036;52.138;5.236;2023-05-16T09:43:14;17.50;48.60
68215;DHT22;55036;52.138;5.236;2023-05-16T09:45:45;17.70;47.90
68215;DHT22;55036;52.138;5.236;2023-05-16T09:48:13;17.80;46.80
68215;DHT22;55036;52.138;5.236;2023-05-16T09:50:54;17.70;46.10
68215;DHT22;55036;52.138;5.236;2023-05-16T09:53:30;17.30;47.40
68215;DHT22;55036;52.138;5.236;2023-05-16T09:56:04;17.00;48.50
68215;DHT22;55036;52.138;5.236;2023-05-16T09:58:34;16.80;48.90
68215;DHT22;55036;52.138;5.236;2023-05-16T10:01:01;16.80;49.20
68215;DHT22;55036;52.138;5.236;2023-05-16T10:03:29;17.00;48.90
68215;DHT22;55036;52.138;5.236;2023-05-16T10:05:56;17.40;48.80
68215;DHT22;55036;52.138;5.236;2023-05-16T10:08:25;17.40;47.60
68215;DHT22;55036;52.138;5.236;2023-05-16T10:10:54;17.30;47.40
68215;DHT22;55036;52.138;5.236;2023-05-16T10:13:27;17.10;46.60
68215;DHT22;55036;52.138;5.236;2023-05-16T10:15:55;17.00;47.90
68215;DHT22;55036;52.138;5.236;2023-05-16T10:18:29;17.10;47.50
68215;DHT22;55036;52.138;5.236;2023-05-16T10:20:58;16.90;47.80
68215;DHT22;55036;52.138;5.236;2023-05-16T10:23:27;17.00;48.60
68215;DHT22;55036;52.138;5.236;2023-05-16T10:25:55;17.10;48.20
68215;DHT22;55036;52.138;5.236;2023-05-16T10:28:24;17.30;49.00
68215;DHT22;55036;52.138;5.236;2023-05-16T10:30:53;17.70;49.50
68215;DHT22;55036;52.138;5.236;2023-05-16T10:33:21;18.20;48.20
68215;DHT22;55036;52.138;5.236;2023-05-16T10:35:48;18.50;48.20
68215;DHT22;55036;52.138;5.236;2023-05-16T10:38:17;18.20;46.70
68215;DHT22;55036;52.138;5.236;2023-05-16T10:40:44;18.10;45.40
68215;DHT22;55036;52.138;5.236;2023-05-16T10:43:25;17.80;45.60
68215;DHT22;55036;52.138;5.236;2023-05-16T10:45:58;17.60;46.10
68215;DHT22;55036;52.138;5.236;2023-05-16T10:48:38;17.30;45.70
68215;DHT22;55036;52.138;5.236;2023-05-16T10:51:34;17.30;45.70
68215;DHT22;55036;52.138;5.236;2023-05-16T10:54:09;17.30;46.00
68215;DHT22;55036;52.138;5.236;2023-05-16T10:56:38;17.30;46.50
68215;DHT22;55036;52.138;5.236;2023-05-16T10:59:24;17.20;46.20
68215;DHT22;55036;52.138;5.236;2023-05-16T11:01:53;17.30;46.50
68215;DHT22;55036;52.138;5.236;2023-05-16T11:04:20;17.50;46.80
68215;DHT22;55036;52.138;5.236;2023-05-16T11:06:51;17.60;47.00
68215;DHT22;55036;52.138;5.236;2023-05-16T11:09:23;17.90;47.40
68215;DHT22;55036;52.138;5.236;2023-05-16T11:11:59;18.20;46.00
68215;DHT22;55036;52.138;5.236;2023-05-16T11:24:38;18.00;44.90
68215;DHT22;55036;52.138;5.236;2023-05-16T11:27:05;17.80;45.20
68215;DHT22;55036;52.138;5.236;2023-05-16T11:29:34;17.40;45.40
68215;DHT22;55036;52.138;5.236;2023-05-16T11:32:03;17.40;45.70
68215;DHT22;55036;52.138;5.236;2023-05-16T11:34:31;17.30;46.30
68215;DHT22;55036;52.138;5.236;2023-05-16T11:36:58;17.20;46.40
68215;DHT22;55036;52.138;5.236;2023-05-16T11:39:26;17.30;46.90
68215;DHT22;55036;52.138;5.236;2023-05-16T11:41:53;17.20;45.80
68215;DHT22;55036;52.138;5.236;2023-05-16T11:44:19;17.30;45.50
68215;DHT22;55036;52.138;5.236;2023-05-16T11:46:46;17.20;46.00
68215;DHT22;55036;52.138;5.236;2023-05-16T11:49:13;17.10;46.00
68215;DHT22;55036;52.138;5.236;2023-05-16T11:51:41;17.00;46.10
68215;DHT22;55036;52.138;5.236;2023-05-16T11:54:08;17.00;46.30
68215;DHT22;55036;52.138;5.236;2023-05-16T11:56:35;16.90;45.90
68215;DHT22;55036;52.138;5.236;2023-05-16T11:59:02;16.80;45.90
68215;DHT22;55036;52.138;5.236;2023-05-16T12:01:37;16.70;46.60
68215;DHT22;55036;52.138;5.236;2023-05-16T12:04:14;16.80;47.40
68215;DHT22;55036;52.138;5.236;2023-05-16T12:06:42;17.20;48.40
68215;DHT22;55036;52.138;5.236;2023-05-16T12:09:14;17.40;47.10
68215;DHT22;55036;52.138;5.236;2023-05-16T12:11:44;17.50;47.70
68215;DHT22;55036;52.138;5.236;2023-05-16T12:14:12;17.50;45.90
68215;DHT22;55036;52.138;5.236;2023-05-16T12:16:39;17.30;46.50
68215;DHT22;55036;52.138;5.236;2023-05-16T12:19:09;17.30;47.10
68215;DHT22;55036;52.138;5.236;2023-05-16T12:21:37;17.10;47.20
68215;DHT22;55036;52.138;5.236;2023-05-16T12:24:04;16.90;47.20
68215;DHT22;55036;52.138;5.236;2023-05-16T12:26:32;16.70;48.40
68215;DHT22;55036;52.138;5.236;2023-05-16T12:29:00;16.80;48.40
68215;DHT22;55036;52.138;5.236;2023-05-16T12:31:29;16.80;49.10
68215;DHT22;55036;52.138;5.236;2023-05-16T12:33:58;16.70;48.60
68215;DHT22;55036;52.138;5.236;2023-05-16T12:36:25;16.70;48.40
68215;DHT22;55036;52.138;5.236;2023-05-16T12:38:52;16.60;48.70
68215;DHT22;55036;52.138;5.236;2023-05-16T12:41:22;16.70;49.80
68215;DHT22;55036;52.138;5.236;2023-05-16T12:43:49;17.00;50.00
68215;DHT22;55036;52.138;5.236;2023-05-16T12:46:16;17.30;49.30
68215;DHT22;55036;52.138;5.236;2023-05-16T12:48:45;17.30;48.60
68215;DHT22;55036;52.138;5.236;2023-05-16T12:51:17;17.10;47.40
68215;DHT22;55036;52.138;5.236;2023-05-16T12:53:46;16.90;47.70
68215;DHT22;55036;52.138;5.236;2023-05-16T12:56:31;16.70;48.30
68215;DHT22;55036;52.138;5.236;2023-05-16T12:58:58;16.60;48.60
68215;DHT22;55036;52.138;5.236;2023-05-16T13:01:24;16.60;48.70
68215;DHT22;55036;52.138;5.236;2023-05-16T13:03:52;16.50;48.90
68215;DHT22;55036;52.138;5.236;2023-05-16T13:06:19;16.50;48.70
68215;DHT22;55036;52.138;5.236;2023-05-16T13:08:46;16.60;48.80
68215;DHT22;55036;52.138;5.236;2023-05-16T13:11:12;16.80;49.00
68215;DHT22;55036;52.138;5.236;2023-05-16T13:13:39;16.90;49.50
68215;DHT22;55036;52.138;5.236;2023-05-16T13:16:06;17.00;48.70
68215;DHT22;55036;52.138;5.236;2023-05-16T13:18:33;16.90;48.90
68215;DHT22;55036;52.138;5.236;2023-05-16T13:21:02;16.80;49.10
68215;DHT22;55036;52.138;5.236;2023-05-16T13:23:32;16.70;49.20
68215;DHT22;55036;52.138;5.236;2023-05-16T13:25:58;16.80;49.20
68215;DHT22;55036;52.138;5.236;2023-05-16T13:28:25;16.90;48.90
68215;DHT22;55036;52.138;5.236;2023-05-16T13:30:52;16.90;48.70
68215;DHT22;55036;52.138;5.236;2023-05-16T13:33:19;17.00;48.90
68215;DHT22;55036;52.138;5.236;2023-05-16T13:35:46;17.10;48.90
68215;DHT22;55036;52.138;5.236;2023-05-16T13:38:13;17.20;48.70
68215;DHT22;55036;52.138;5.236;2023-05-16T13:40:39;17.20;48.30
68215;DHT22;55036;52.138;5.236;2023-05-16T13:43:09;17.30;48.70
68215;DHT22;55036;52.138;5.236;2023-05-16T13:45:36;17.60;48.40
68215;DHT22;55036;52.138;5.236;2023-05-16T13:48:03;17.60;48.50
68215;DHT22;55036;52.138;5.236;2023-05-16T13:50:30;17.50;48.00
68215;DHT22;55036;52.138;5.236;2023-05-16T13:52:59;17.20;47.70
68215;DHT22;55036;52.138;5.236;2023-05-16T13:55:26;17.10;47.30
68215;DHT22;55036;52.138;5.236;2023-05-16T13:57:53;17.10;48.40
68215;DHT22;55036;52.138;5.236;2023-05-16T14:00:20;17.30;48.00
68215;DHT22;55036;52.138;5.236;2023-05-16T14:02:50;17.50;48.00
68215;DHT22;55036;52.138;5.236;2023-05-16T14:05:17;17.60;47.80
68215;DHT22;55036;52.138;5.236;2023-05-16T14:07:44;17.70;48.40
68215;DHT22;55036;52.138;5.236;2023-05-16T14:10:12;17.90;47.00
68215;DHT22;55036;52.138;5.236;2023-05-16T14:12:39;18.10;46.20
68215;DHT22;55036;52.138;5.236;2023-05-16T14:15:06;18.00;46.60
68215;DHT22;55036;52.138;5.236;2023-05-16T14:17:33;18.00;46.70
68215;DHT22;55036;52.138;5.236;2023-05-16T14:20:00;18.00;46.30
68215;DHT22;55036;52.138;5.236;2023-05-16T14:22:26;17.80;46.10
68215;DHT22;55036;52.138;5.236;2023-05-16T14:24:54;17.90;46.80
68215;DHT22;55036;52.138;5.236;2023-05-16T14:27:20;18.10;46.40
68215;DHT22;55036;52.138;5.236;2023-05-16T14:29:47;18.00;45.80
68215;DHT22;55036;52.138;5.236;2023-05-16T14:32:14;18.00;46.20
68215;DHT22;55036;52.138;5.236;2023-05-16T14:34:41;17.90;46.30
68215;DHT22;55036;52.138;5.236;2023-05-16T14:37:08;17.80;45.80
68215;DHT22;55036;52.138;5.236;2023-05-16T14:39:36;17.60;46.60
68215;DHT22;55036;52.138;5.236;2023-05-16T14:42:03;17.60;46.00
68215;DHT22;55036;52.138;5.236;2023-05-16T14:44:33;17.60;45.90
68215;DHT22;55036;52.138;5.236;2023-05-16T14:47:00;17.60;45.80
68215;DHT22;55036;52.138;5.236;2023-05-16T14:49:27;17.80;45.90
68215;DHT22;55036;52.138;5.236;2023-05-16T14:51:54;18.00;44.70
68215;DHT22;55036;52.138;5.236;2023-05-16T14:54:20;18.10;46.10
68215;DHT22;55036;52.138;5.236;2023-05-16T14:56:47;18.20;45.00
68215;DHT22;55036;52.138;5.236;2023-05-16T14:59:14;18.00;45.10
68215;DHT22;55036;52.138;5.236;2023-05-16T15:01:41;17.90;44.40
68215;DHT22;55036;52.138;5.236;2023-05-16T15:04:08;17.70;45.10
68215;DHT22;55036;52.138;5.236;2023-05-16T15:06:35;17.70;45.10
68215;DHT22;55036;52.138;5.236;2023-05-16T15:09:02;17.60;45.60
68215;DHT22;55036;52.138;5.236;2023-05-16T15:11:29;17.70;46.00
68215;DHT22;55036;52.138;5.236;2023-05-16T15:13:57;17.70;45.90
68215;DHT22;55036;52.138;5.236;2023-05-16T15:16:23;17.60;45.70
68215;DHT22;55036;52.138;5.236;2023-05-16T15:18:50;17.60;46.50
68215;DHT22;55036;52.138;5.236;2023-05-16T15:21:17;17.60;46.60
68215;DHT22;55036;52.138;5.236;2023-05-16T15:23:44;17.40;47.20
68215;DHT22;55036;52.138;5.236;2023-05-16T15:26:12;17.20;47.00
68215;DHT22;55036;52.138;5.236;2023-05-16T15:28:38;17.10;46.90
68215;DHT22;55036;52.138;5.236;2023-05-16T15:31:05;17.10;48.60
68215;DHT22;55036;52.138;5.236;2023-05-16T15:33:32;17.00;48.20
68215;DHT22;55036;52.138;5.236;2023-05-16T15:35:58;16.80;47.90
68215;DHT22;55036;52.138;5.236;2023-05-16T15:38:25;16.70;47.70
68215;DHT22;55036;52.138;5.236;2023-05-16T15:40:52;16.60;47.80
68215;DHT22;55036;52.138;5.236;2023-05-16T15:43:38;16.40;48.10
68215;DHT22;55036;52.138;5.236;2023-05-16T15:46:07;16.40;48.80
68215;DHT22;55036;52.138;5.236;2023-05-16T15:48:36;16.40;48.70
68215;DHT22;55036;52.138;5.236;2023-05-16T15:51:03;16.40;49.20
68215;DHT22;55036;52.138;5.236;2023-05-16T15:53:29;16.30;49.20
68215;DHT22;55036;52.138;5.236;2023-05-16T15:55:56;16.30;49.50
68215;DHT22;55036;52.138;5.236;2023-05-16T15:58:23;16.10;49.60
68215;DHT22;55036;52.138;5.236;2023-05-16T16:00:50;16.10;50.10
68215;DHT22;55036;52.138;5.236;2023-05-16T16:03:16;16.00;50.60
68215;DHT22;55036;52.138;5.236;2023-05-16T16:05:43;15.80;51.10
68215;DHT22;55036;52.138;5.236;2023-05-16T16:08:10;15.90;51.40
68215;DHT22;55036;52.138;5.236;2023-05-16T16:10:37;15.80;51.50
68215;DHT22;55036;52.138;5.236;2023-05-16T16:13:04;15.70;51.80
68215;DHT22;55036;52.138;5.236;2023-05-16T16:15:32;15.70;52.10
68215;DHT22;55036;52.138;5.236;2023-05-16T16:17:59;15.60;52.60
68215;DHT22;55036;52.138;5.236;2023-05-16T16:20:26;15.50;53.40
68215;DHT22;55036;52.138;5.236;2023-05-16T16:22:53;15.40;54.20
68215;DHT22;55036;52.138;5.236;2023-05-16T16:25:20;15.30;55.10
68215;DHT22;55036;52.138;5.236;2023-05-16T16:27:47;15.30;55.00